Latest Weather Observations for Hobart Airport

IDT60901

Issued at 11:35 pm EST Sunday 20 April 2014 (issued every 10 minutes, with the page automatically refreshed every 10 minutes)

About weather observations | Map of Hobart area stations | Latest observations for Hobart area | Other Formats
Station Details ID: 094008 Name: HOBART AIRPORT Lat: -42.83 Lon: 147.50 Height: 4.0 m
Data from the previous 72 hours. | See also: Recent months at Hobart Airport
Date/Time
EST
Tmp

°C
App
Tmp
°C
Dew
Point
°C
Rel
Hum
%
Delta-T

°C
Wind Press
QNH
hPa
Press
MSL
hPa
Rain
since
9 am
mm
Dir
 
Spd
km/h
Gust
km/h
Spd
kts
Gust
kts
20/11:30pm 6.3 3.4 2.4 76 1.6 WSW 7 9 4 5 1015.9 - 0.0
20/11:00pm 7.4 3.3 2.0 68 2.2 WNW 13 17 7 9 1015.7 1015.7 0.0
20/10:30pm 8.6 4.9 2.1 63 2.7 W 11 11 6 6 1015.6 - 0.0
20/10:00pm 8.4 5.1 2.7 67 2.4 W 9 9 5 5 1015.5 1015.5 0.0
20/09:30pm 8.4 6.7 4.0 74 1.9 SSW 2 7 1 4 1015.0 - 0.0
20/09:00pm 9.8 4.4 4.4 69 2.4 WSW 22 32 12 17 1014.6 1014.6 0.0
20/08:31pm 10.9 3.2 2.2 55 3.7 SW 32 50 17 27 1014.1 - 0.0
20/08:30pm 10.8 2.9 2.4 56 3.6 SW 33 50 18 27 1014.1 - 0.0
20/08:29pm 10.8 2.9 2.4 56 3.6 SW 33 50 18 27 1014.1 - 0.0
20/08:00pm 11.2 6.6 3.8 60 3.3 WSW 17 26 9 14 1013.6 1013.6 0.0
20/07:30pm 11.3 7.9 3.9 60 3.3 W 11 17 6 9 1012.8 - 0.0
20/07:00pm 12.2 8.3 5.5 63 3.1 WSW 15 20 8 11 1012.3 1012.3 0.0
20/06:30pm 12.9 8.7 5.9 62 3.3 WSW 17 26 9 14 1011.7 - 0.0
20/06:00pm 13.5 9.0 6.9 64 3.2 SW 20 33 11 18 1011.0 1011.0 0.0
20/05:30pm 13.4 10.7 8.8 74 2.3 SSW 13 17 7 9 1010.2 - 0.0
20/05:00pm 14.1 10.1 9.2 72 2.5 SSW 20 28 11 15 1009.5 1009.5 0.0
20/04:30pm 15.6 12.9 8.8 64 3.5 SSW 13 17 7 9 1009.0 - 0.0
20/04:00pm 17.1 12.5 6.6 50 5.2 WSW 20 28 11 15 1008.6 1008.6 0.0
20/03:30pm 18.1 14.6 7.2 49 5.5 WNW 15 20 8 11 1008.0 - 0.0
20/03:00pm 17.3 11.8 6.1 47 5.5 WSW 24 33 13 18 1007.7 1007.7 0.0
20/02:30pm 18.6 13.0 5.3 41 6.5 W 24 32 13 17 1007.1 - 0.0
20/02:00pm 18.0 12.5 6.0 45 5.9 NW 24 37 13 20 1006.9 1006.9 0.0
20/01:30pm 16.9 11.4 5.8 48 5.4 NW 24 33 13 18 1007.1 - 0.0
20/01:00pm 16.9 11.6 5.0 45 5.7 WNW 22 30 12 16 1007.5 1007.5 0.0
20/12:30pm 16.8 10.7 4.8 45 5.7 NW 26 32 14 17 1007.9 - 0.0
20/12:00pm 16.7 10.3 5.0 46 5.6 NW 28 37 15 20 1008.6 1008.6 0.0
20/11:30am 15.5 9.5 5.2 50 4.9 NW 26 35 14 19 1009.0 - 0.0
20/11:00am 15.3 8.4 4.6 49 5.0 NW 30 37 16 20 1009.2 1009.2 0.0
20/10:30am 15.5 10.5 4.4 47 5.2 NW 20 28 11 15 1009.6 - 0.0
20/10:00am 13.6 9.0 3.7 51 4.5 NNW 17 24 9 13 1010.2 1010.2 0.0
20/09:30am 12.1 8.3 4.1 58 3.6 NNW 13 19 7 10 1010.6 - 0.0
20/09:00am 9.9 6.3 3.2 63 2.9 NNW 11 15 6 8 1010.9 1010.9 0.0
20/08:30am 9.0 5.5 3.4 68 2.4 NW 11 15 6 8 1011.3 - 0.0
20/08:00am 7.5 4.3 3.0 73 1.9 NNW 9 11 5 6 1011.4 1011.4 0.0
20/07:30am 7.4 4.1 2.6 71 2.0 WSW 9 11 5 6 1011.5 - 0.0
20/07:00am 6.1 2.8 2.2 76 1.6 S 9 11 5 6 1011.3 1011.3 0.0
20/06:30am 7.2 3.5 2.6 72 1.9 NW 11 15 6 8 1011.2 - 0.0
20/06:00am 6.8 2.4 2.7 75 1.7 NW 15 19 8 10 1011.3 1011.3 0.0
20/05:30am 6.3 1.8 2.1 74 1.7 NW 15 17 8 9 1011.4 - 0.0
20/05:00am 7.2 3.0 1.8 68 2.2 NNW 13 15 7 8 1011.5 1011.5 0.0
20/04:30am 7.3 3.5 1.9 68 2.2 NW 11 15 6 8 1011.7 - 0.0
20/04:00am 6.8 2.7 2.2 72 1.9 NNW 13 17 7 9 1011.9 1011.9 0.0
20/03:30am 7.0 3.3 2.4 72 1.9 NNW 11 15 6 8 1012.1 - 0.0
20/03:00am 8.0 5.0 1.7 64 2.6 NNW 7 9 4 5 1012.5 1012.5 0.0
20/02:30am 7.6 4.3 2.3 69 2.2 NNW 9 13 5 7 1012.9 - 0.0
20/02:00am 6.9 3.0 1.4 68 2.2 N 11 13 6 7 1013.2 1013.2 0.0
20/01:30am 6.4 3.4 2.2 74 1.7 NNW 7 11 4 6 1013.4 - 0.0
20/01:00am 8.7 5.3 2.0 63 2.8 NW 9 13 5 7 1013.5 1013.5 0.0
20/12:30am 9.4 5.0 2.8 63 2.8 NW 15 17 8 9 1013.8 - 0.0
20/12:00am 10.4 6.2 3.6 63 3.0 NW 15 19 8 10 1013.9 1013.9 0.0
 
Date/Time
EST
Tmp

°C
App
Tmp
°C
Dew
Point
°C
Rel
Hum
%
Delta-T

°C
Wind Press
QNH
hPa
Press
MSL
hPa
Rain
since
9 am
mm
Dir
 
Spd
km/h
Gust
km/h
Spd
kts
Gust
kts
19/11:30pm 10.9 7.3 3.1 58 3.4 NNW 11 15 6 8 1014.1 - 0.0
19/11:00pm 10.7 7.1 3.1 59 3.3 WNW 11 13 6 7 1014.5 1014.5 0.0
19/10:30pm 10.9 6.2 3.4 60 3.3 NW 17 19 9 10 1014.9 - 0.0
19/10:00pm 11.1 6.7 2.8 56 3.6 WNW 15 19 8 10 1015.2 1015.2 0.0
19/09:30pm 11.1 7.0 2.2 54 3.8 NW 13 15 7 8 1015.2 - 0.0
19/09:00pm 10.9 7.5 1.9 54 3.8 NNW 9 11 5 6 1015.3 1015.3 0.0
19/08:30pm 11.7 8.1 0.6 46 4.6 WNW 9 13 5 7 1015.2 - 0.0
19/08:00pm 11.3 9.0 4.7 64 3.0 N 6 9 3 5 1015.2 1015.2 0.0
19/07:30pm 11.7 9.3 4.4 61 3.3 SSW 6 7 3 4 1015.1 - 0.0
19/07:00pm 11.6 8.8 5.0 64 3.0 SW 9 15 5 8 1015.2 1015.2 0.0
19/06:30pm 11.7 9.3 5.4 65 2.9 SSW 7 11 4 6 1015.1 - 0.0
19/06:00pm 11.8 9.5 5.0 63 3.1 WSW 6 9 3 5 1014.9 1014.9 0.0
19/05:30pm 12.0 8.4 5.0 62 3.2 S 13 17 7 9 1014.7 - 0.0
19/05:00pm 12.3 7.6 5.2 62 3.3 SSW 19 20 10 11 1014.7 1014.7 0.0
19/04:30pm 12.5 7.3 5.7 63 3.2 S 22 28 12 15 1014.7 - 0.0
19/04:00pm 12.9 8.5 4.9 58 3.7 S 17 24 9 13 1014.6 1014.6 0.0
19/03:30pm 14.4 9.5 1.8 42 5.5 SW 17 22 9 12 1014.6 - 0.0
19/03:00pm 14.0 9.8 1.8 43 5.3 WSW 13 19 7 10 1014.5 1014.5 0.0
19/02:30pm 13.5 7.8 2.6 47 4.8 SSW 22 30 12 16 1014.7 - 0.0
19/02:00pm 13.9 8.1 2.3 45 5.1 SSW 22 30 12 16 1014.6 1014.6 0.0
19/01:30pm 14.8 8.6 2.1 42 5.6 SSW 24 33 13 18 1014.7 - 0.0
19/01:00pm 14.1 8.2 2.0 44 5.3 SSW 22 32 12 17 1014.8 1014.8 0.0
19/12:30pm 13.4 7.0 1.2 43 5.2 WSW 24 35 13 19 1015.4 - 0.0
19/12:00pm 14.7 9.1 1.3 40 5.8 SW 20 30 11 16 1015.8 1015.8 0.0
19/11:30am 13.3 6.8 0.4 41 5.4 WSW 24 37 13 20 1016.0 - 0.0
19/11:00am 13.2 7.2 0.9 43 5.2 WSW 22 33 12 18 1016.2 1016.2 0.0
19/10:30am 13.3 7.3 0.8 42 5.3 WSW 22 41 12 22 1016.1 - 0.0
19/10:00am 13.6 7.1 0.6 41 5.5 SSW 24 28 13 15 1016.2 1016.2 0.0
19/09:30am 13.0 7.5 1.6 46 4.9 SW 20 39 11 21 1016.2 - 0.0
19/09:00am 11.7 6.2 1.9 51 4.2 SW 20 32 11 17 1015.9 1015.9 0.2
19/08:30am 11.6 6.7 1.7 50 4.2 WSW 17 24 9 13 1015.8 - 0.2
19/08:00am 10.5 5.3 2.3 57 3.5 W 19 26 10 14 1015.7 1015.7 0.2
19/07:30am 10.7 5.9 2.5 57 3.5 W 17 32 9 17 1015.5 - 0.2
19/07:00am 9.7 4.3 2.7 61 3.0 WSW 20 26 11 14 1015.0 1015.0 0.2
19/06:30am 10.0 4.7 2.8 61 3.1 WSW 20 33 11 18 1014.9 - 0.2
19/06:00am 9.8 4.4 2.5 60 3.1 WSW 20 28 11 15 1014.5 1014.5 0.2
19/05:30am 10.1 3.6 2.9 61 3.1 WSW 26 37 14 20 1014.4 - 0.2
19/05:00am 9.1 4.6 2.2 62 2.9 W 15 17 8 9 1014.2 1014.2 0.2
19/04:30am 9.5 4.0 2.1 60 3.1 W 20 30 11 16 1013.9 - 0.2
19/04:00am 10.0 4.6 2.2 58 3.3 WSW 20 28 11 15 1014.0 1014.0 0.2
19/03:30am 10.3 5.4 1.7 55 3.6 WSW 17 30 9 16 1013.8 - 0.2
19/03:00am 10.4 4.9 1.9 55 3.6 WSW 20 35 11 19 1013.6 1013.6 0.2
19/02:30am 10.3 4.4 2.0 56 3.5 WSW 22 30 12 16 1013.6 - 0.2
19/02:00am 10.5 5.0 2.0 55 3.6 W 20 35 11 19 1013.7 1013.7 0.2
19/01:30am 10.2 5.3 1.9 56 3.5 W 17 26 9 14 1013.7 - 0.2
19/01:00am 10.5 5.6 2.0 55 3.6 WSW 17 26 9 14 1013.6 1013.6 0.2
19/12:30am 10.6 5.3 1.8 54 3.7 WSW 19 33 10 18 1013.5 - 0.2
19/12:00am 10.6 5.3 2.1 55 3.6 WSW 19 28 10 15 1013.6 1013.6 0.2
 
Date/Time
EST
Tmp

°C
App
Tmp
°C
Dew
Point
°C
Rel
Hum
%
Delta-T

°C
Wind Press
QNH
hPa
Press
MSL
hPa
Rain
since
9 am
mm
Dir
 
Spd
km/h
Gust
km/h
Spd
kts
Gust
kts
18/11:30pm 11.2 5.3 1.5 51 4.1 WSW 22 32 12 17 1013.3 - 0.2
18/11:00pm 11.1 5.2 1.9 53 3.9 SW 22 33 12 18 1013.5 1013.5 0.2
18/10:30pm 11.5 6.3 2.5 54 3.9 WSW 19 26 10 14 1013.3 - 0.2
18/10:00pm 11.0 6.3 3.0 58 3.5 WSW 17 24 9 13 1013.3 1013.3 0.2
18/09:30pm 11.2 6.1 2.9 56 3.6 WSW 19 28 10 15 1012.9 - 0.2
18/09:00pm 11.4 6.1 2.9 56 3.7 SW 20 28 11 15 1012.9 1012.9 0.2
18/08:30pm 11.7 6.4 2.8 54 3.9 WSW 20 35 11 19 1012.5 - 0.2
18/08:00pm 11.9 6.6 3.0 54 3.9 WSW 20 30 11 16 1012.2 1012.2 0.2
18/07:30pm 11.8 5.8 3.2 55 3.8 WSW 24 35 13 19 1012.0 - 0.2
18/07:00pm 12.0 4.8 2.9 53 4.0 WSW 30 39 16 21 1011.6 1011.6 0.2
18/06:30pm 12.0 5.5 2.6 52 4.1 WSW 26 35 14 19 1011.2 - 0.2
18/06:00pm 11.9 6.3 3.3 55 3.8 SW 22 41 12 22 1011.0 1011.0 0.2
18/05:30pm 12.7 6.9 2.1 48 4.6 SW 22 37 12 20 1010.6 - 0.2
18/05:00pm 13.0 5.3 2.2 48 4.7 WSW 32 43 17 23 1010.1 1010.1 0.2
18/04:30pm 14.1 6.1 1.4 42 5.5 SW 33 52 18 28 1009.5 - 0.2
18/04:00pm 14.3 6.6 3.2 47 5.0 SW 33 48 18 26 1009.1 1009.1 0.2
18/03:30pm 14.5 7.8 3.8 48 4.9 SW 28 39 15 21 1008.6 - 0.2
18/03:00pm 14.5 7.0 3.5 47 5.0 SW 32 46 17 25 1008.3 1008.3 0.2
18/02:57pm 14.5 7.8 3.5 47 5.0 SW 28 46 15 25 1008.2 - 0.2
18/02:30pm 14.7 9.5 3.8 48 5.0 WSW 20 26 11 14 1008.1 - 0.2
18/02:00pm 14.6 9.8 4.8 52 4.6 WSW 19 28 10 15 1008.0 1008.0 0.2
18/01:30pm 14.1 9.6 4.4 52 4.5 W 17 26 9 14 1008.0 - 0.2
18/01:00pm 13.6 8.2 4.5 54 4.2 WNW 22 33 12 18 1008.1 1008.1 0.2
18/12:30pm 13.4 10.1 6.5 63 3.3 W 13 17 7 9 1008.1 - 0.2
18/12:00pm 14.0 10.8 5.0 54 4.2 N 11 15 6 8 1008.0 1008.0 0.2
18/11:30am 14.1 11.4 5.7 57 4.0 NNW 9 13 5 7 1008.3 - 0.2
18/11:00am 13.6 10.9 7.3 65 3.1 SSW 11 17 6 9 1009.0 1009.0 0.2
18/10:30am 14.4 9.1 9.8 74 2.4 WSW 28 33 15 18 1008.5 - 0.2
18/10:08am 18.0 11.1 6.6 47 5.7 NW 32 39 17 21 1007.2 - 0.0
18/10:00am 17.8 15.8 10.1 60 4.1 NNW 11 17 6 9 1006.9 1006.9 0.0
18/09:30am 17.0 13.8 10.0 63 3.7 NNW 17 20 9 11 1007.0 - 0.0
18/09:00am 15.9 14.0 10.6 71 2.8 NNW 11 17 6 9 1007.3 1007.3 0.0
18/08:30am 14.7 11.7 10.5 76 2.2 NNW 17 30 9 16 1008.0 - 0.0
18/08:00am 12.1 10.4 9.7 85 1.2 NW 9 11 5 6 1008.5 1008.5 0.0
18/07:30am 8.3 7.5 6.6 89 0.8 CALM 0 0 0 0 1008.7 - 0.0
18/07:00am 8.5 7.9 7.2 91 0.6 CALM 0 0 0 0 1009.0 1009.0 0.0
18/06:41am 8.6 6.7 7.5 93 0.5 WNW 7 11 4 6 1009.1 - 0.0
18/06:30am 8.8 7.2 7.8 93 0.5 W 6 7 3 4 1009.3 - 0.0
18/06:24am 9.4 8.2 7.9 90 0.7 SSE 4 9 2 5 1009.3 - 0.0
18/06:00am 9.7 9.3 8.3 91 0.7 CALM 0 0 0 0 1009.6 1009.6 0.0
18/05:30am 10.5 10.2 8.7 89 0.9 CALM 0 0 0 0 1010.0 - 0.0
18/05:00am 12.1 11.1 8.7 80 1.7 S 4 7 2 4 1010.5 1010.5 0.0
18/04:30am 12.3 9.7 9.3 82 1.5 N 13 17 7 9 1010.7 - 0.0
18/04:00am 11.0 9.4 8.8 86 1.1 NW 7 13 4 7 1011.1 1011.1 0.0
18/03:30am 11.6 10.1 8.4 81 1.6 WNW 6 9 3 5 1011.4 - 0.0
18/03:00am 11.7 9.7 8.5 81 1.6 NW 9 13 5 7 1011.9 1011.9 0.0
18/02:30am 11.9 10.0 9.1 83 1.4 WNW 9 13 5 7 1012.4 - 0.0
18/02:00am 12.0 11.5 9.2 83 1.4 WSW 2 7 1 4 1012.7 1012.7 0.0
18/01:30am 11.5 9.2 8.9 84 1.3 NW 11 15 6 8 1013.4 - 0.0
18/01:00am 12.4 10.4 8.8 79 1.8 NW 9 13 5 7 1013.8 1013.8 0.0
18/12:30am 12.4 9.6 8.6 77 1.9 NW 13 17 7 9 1014.2 - 0.0
18/12:00am 13.0 10.7 9.0 77 2.0 WNW 11 15 6 8 1014.5 1014.5 0.0

Latest Capital City Observations: Canberra | Sydney | Melbourne | Brisbane | Adelaide | Perth | Hobart | Darwin

Other Formats:

Comma delimited format used in spreadsheet applications
http://www.bom.gov.au/fwo/IDT60901/IDT60901.94975.axf

JavaScript Object Notation format (JSON) in row-major order
http://www.bom.gov.au/fwo/IDT60901/IDT60901.94975.json